logo
Rechercher aéroport 
image banner adimage banner adimage banner ad
image banner ad

SDBQ - Hospital Sao Mateus

Situé à Fortaleza, Brazil

ICAO - SDBQ, IATA -

Données fournies par Airmate  

Information générale

Coordonnées: S3°44'30" W38°28'46"
Élévation : 413 feet MSL.
Variation magnétique : -20.728377559° East
Voir autres Aéroports à Ceará

Données opérationnelles

Special qualification required
Heure actuelle UTC:
Heure actuelle locale:
Météo à : SBFZ - Pinto Martins ( 7 km )
METAR: SBFZ 270400Z 14003KT 9999 FEW020 26/24 Q1013
TAF: TAF SBFZ 270220Z 2706/2806 13005KT 8000 BKN020 TX31/2716Z TN26/2806Z TEMPO 2706/2710 4000 BR FEW007 BKN017 TEMPO 2712/2720 11015KT 6000 SCT020 FEW030TCU BECMG 2800/2802 14006KT TEMPO 2803/2805 6000 TS BKN017 FEW030CB RMK PGW
Voir NOTAMs / SUP AIP / TFR affectant cet aéroport [VIEW]
Fréquences de communication: [VIEW]

Pistes:

Coordonnées de l'aéroport

Adresse: Fortaleza Brazil

Vue satellite de SDBQ